About Frigates[edit | edit source]

Frigates are mobile, quick ships useful at taking out the expensive, heavy, and prized Battleships. They deal extra damage to Battleships, as well as receiving less damage from them. They are also the only ship out of the three that begin with a default movement value of one, meaning they don't have to equip a Transmission module to move. While they excel at scouting, and have excellent shields, they have the lowest carrying volume for modules and once their shields are gone, their structure is also the weakest. As an added bonus, all Frigates carry a +1% Chance of a Critical Hit.

Frigate Ships have two different types of Armor: Nano Armor and Neutralizing Armor. Nano Armor minimizes the damage dealt by Heat and Explosive Weapons while Neutralizing Armor minimizes the damage dealt by Magnetic and Explosive Weapons. Each ship hull has a different armor type, by matching up modules such as Particle Stun shield, which reduces Kinetic damage, it is possible to a Chrome hull into a ship nearly invulnerable against Kinetic weapons. To see more information about Armor, see theArmor Types page. Use the weapons and hulls with your modules to achieve maximum effectiveness and diversity in your designs and you'll soon be on you're way to conquering the galaxy.

Frigates versus Battleships and Cruisers[edit | edit source]

Frigates deal more damage to Battleships and take more damage from Cruisers. The following table shows the Attack percentage and Defense percentage of the Frigate versus the other two ship types:

Ship Type Frigates Cruisers Battleship
Frigate 0 -5% +5%
Cruisers +5% 0 -5%
Battleship -5% +5% 0

Frigate Base Stats[edit | edit source]

The following table is a list of all Frigate ships, their base attributes and the base cost per module installed on ships. For a comprehensive list of ALL ships and their stats go to the Composite Ship Table. Certain types of research can enhance their shields and structure.

Ship Name Ship Icon Armor Shields icon.gifShields Structure icon.gifStructure Installation Slots icon.gifInstallation Slots Storage icon.gifStore: Movement icon.gifMov. Stability Agility Defense Build time icon.gifBuild Time Transit Time icon.gifTransmit Time MetalResourceIcon.gifMetal Cost He3ResourceIcon.gifHe3 Cost GoldResourceIcon.gifGold Cost
Weikes-I Weikes-I icon.gif Nano 270 770 100 2 1 1.10 6.0 0.5 00:00:04 00:01:12 35 12 7
Weikes-II Weikes-II icon.gif Nano 308 880 160 3 1 1.10 6.3 0.9 00:00:05 00:01:10 39 15 10
Weikes-III Weikes-III icon.gif Nano 364 1,040 220 3 1 1.15 6.6 1.2 00:00:05 00:01:04 45 21 15
Air Wanderer-I Air Wanderer-I icon.gif Neutralizing 337 963 160 3 1 1.10 6.4 1.0 00:00:05 00:01:04 39 15 10
Air Wanderer-II Air Wanderer-II icon.gif Neutralizing 382 1,090 200 4 1 1.15 6.7 1.3 00:00:05 00:01:03 43 19 14
Air Wanderer-III Air Wanderer-III icon.gif Neutralizing 448 1,280 260 5 1 1.15 7.0 1.6 00:00:06 00:00:58 49 24 19
Valkyrie-I Valkyrie-I icon.gif Nano 404 1,155 200 5 1 1.15 6.8 1.5 00:00:06 00:00:59 43 19 14
Valkyrie-II Valkyrie-II icon.gif Nano 462 1,320 240 5 1 1.20 7.1 1.8 00:00:07 00:00:57 47 22 17
Valkyrie-III Valkyrie-III icon.gif Nano 539 1,540 300 6 1 1.20 7.2 2.2 00:00:08 00:00:53 53 28 22
GoGetter-I GoGetter-I icon.gif Neutralizing 472 1,348 240 7 1 1.15 7.0 2.1 00:00:07 00:00:52 48 23 17
GoGetter-II GoGetter-II icon.gif Neutralizing 536 1,530 280 8 1 1.20 7.3 2.3 00:00:09 00:00:50 52 26 20
GoGetter-III GoGetter-III icon.gif Neutralizing 630 1,800 340 8 1 1.25 7.6 2.5 00:00:09 00:00:46 58 32 26
Space Hunter-I Space Hunter-I icon.png Nano 539 1,540 280 9 1 1.20 7.4 2.4 00:00:08 00:00:46 52 26 21
Space Hunter-II Space Hunter-II icon.png Nano 609 1,740 320 10 1 1.25 7.7 2.6 00:00:09 00:00:45 56 30 24
Space Hunter-III Space Hunter-III icon.png Nano 721 2,060 380 11 1 1.25 8.0 2.7 00:00:10 00:00:41 63 36 30
Sparrow-I Sparrow-I icon.png Neutralizing 606 1,733 320 11 1 1.25 7.8 2.5 00:00:09 00:00:41 57 30 24
Sparrow-II Sparrow-II icon.png Neutralizing 690 1,970 360 12 1 1.30 8.1 2.7 00:00:11 00:00:41 61 34 28
Sparrow-III Sparrow-III icon.png Neutralizing 805 2,300 420 13 1 1.35 8.4 2.9 00:00:12 00:00:37 67 40 34
Devourer-I Screen shot 2011-08-24 at 4.01.09 PM.png Nano 674 1,925 360 14 1 1.30 8.2 2.8 00:00:10 00:00:36 62 34 28
Devourer-II Screen shot 2011-08-24 at 4.01.35 PM.png Nano 763 2,180 400 15 1 1.35 8.5 2.9 00:00:12 00:00:36 66 38 32
Devourer-III Screen shot 2011-08-24 at 4.01.51 PM.png Nano 896 2,560 460 17 1 1.35 8.8 3.0 00:00:14 00:00:32 72 44 37
Polymesus-I Screen shot 2011-08-24 at 4.02.00 PM.png Neutralizing 741 2,118 400 18 2 1.25 8.6 2.8 00:00:11 00:00:30 67 38 32
Polymesus-II Screen shot 2011-08-24 at 4.02.08 PM.png Neutralizing 837 2,390 440 20 2 1.30 8.9 3.1 00:00:13 00:00:31 71 42 36
Polymesus-III Screen shot 2011-08-24 at 4.02.15 PM.png Neutralizing 987 2,820 500 21 2 1.35 9.2 3.3 00:00:15 00:00:28 77 48 42
Cybra-I Screen shot 2011-08-24 at 4.02.23 PM.png Nano 809 2,310 440 23 2 1.30 9.0 3.2 00:00:12 00:00:26 72 42 36
Cybra-II Screen shot 2011-08-24 at 4.02.36 PM.png Nano 917 2,620 480 24 2 1.35 9.3 3.5 00:00:14 00:00:25 76 46 40
Cybra-III Screen shot 2011-08-24 at 4.02.42 PM.png Nano 1,078 3,080 540 26 2 1.40 9.6 3.7 00:00:15 00:00:23 83 52 46
Hamdar-I Hamdar I.png Neutralizing 876 2,503 480 27 2 1.40 9.4 3.6 00:00:13 00:00:21 77 47 40
Hamdar-II Hamdar II.png Neutralizing 991 2,830 520 28 2 1.40 9.7 3.8 00:00:15 00:00:20 81 51 44
Hamdar-III Hamdar III.png Neutralizing 1,162 3,320 580 30 2 1.40 10.0 4.0 00:00:17 00:00:18 88 57 50
Chimera Leonis-I Chimera Leonis-I icon.png Chrome 1,690 5,600 640 120 1 1.55 10.5 4.6 00:00:12 00:00:16 105 67 58
Chimera Leonis-II Chimera Leonis-II icon.png Chrome 1,970 6,600 680 130 2 1.55 10.8 5.1 00:00:13 00:00:14 111 72 63
Chimera Leonis-III Chimera Leonis-III icon.png Chrome 2,290 7,700 720 140 3 1.55 11.1 5.6 00:00:17 00:00:12 120 79 70
Ultra Nwyfre-I Ultra Nwyfre-I.png Neutralizing 2,700 8,400 650 120 1 1.6 10 4.9 00:00:09 00:00:18 226 180 170
Ultra Nwyfre-II Ultra Nwyfre-II.png Neutralizing 3,000 9,900 690 140 2 1.6 11.2 5.4 00:00:10 00:00:16 233 186 176
Ultra Nwyfre-III Ultra Nwyfre-III.png Neutralizing 3,300 11,550 730 180 3 1.6 12.5 5.9 00:00:14 00:00:14 244 195 184

Frigate Upgrade Info[edit | edit source]

The following table is a list of all Frigates, and their upgrade cost and time to upgrade. The Upgrade Time can be improved by improving the Weapon Research Center.

Ship Name Cost Upgrade Time
Weikes-I Weikes-I icon.gif - -
Weikes-II Weikes-II icon.gif GoldResourceIcon.gif 2,930 00:22:21
Weikes-III Weikes-III icon.gif GoldResourceIcon.gif 4,210 00:46:09
Air Wanderer-I Air Wanderer-I icon.gif - -
Air Wanderer-II Air Wanderer-II icon.gif GoldResourceIcon.gif 26,207 01:51:47
Air Wanderer-III Air Wanderer-III icon.gif GoldResourceIcon.gif 37,651 03:50:44
Valkyrie-I Valkyrie-I icon.gif - -
Valkyrie-II Valkyrie-II icon.gif GoldResourceIcon.gif 83,391 03:43:35
Valkyrie-III Valkyrie-III icon.gif GoldResourceIcon.gif 119,806 07:41:28
GoGetter-I GoGetter-I icon.gif - -
GoGetter-II GoGetter-II icon.gif GoldResourceIcon.gif 277,353 13:02:31
GoGetter-III GoGetter-III icon.gif GoldResourceIcon.gif 398,463 26:55:07
Space Hunter-I Space Hunter-I icon.png - -
Space Hunter-II Space Hunter-II icon.png GoldResourceIcon.gif 557,870 21:36:45
Space Hunter-III Space Hunter-III icon.png GoldResourceIcon.gif 801,471 44:36:29
Sparrow-I Sparrow-I icon.png - -
Sparrow-II Sparrow-II icon.png GoldResourceIcon.gif 913,507 27:56:49
Sparrow-III Sparrow-III icon.png GoldResourceIcon.gif 1,312,402 57:40:58
Devourer-I Screen shot 2011-08-24 at 4.01.09 PM.png - -
Devourer-II Screen shot 2011-08-24 at 4.01.35 PM.png GoldResourceIcon.gif 1,435,737 37:15:46
Devourer-III Screen shot 2011-08-24 at 4.01.51 PM.png GoldResourceIcon.gif 2,062,669 76:54:37
Polymesus-I Screen shot 2011-08-24 at 4.02.00 PM.png - -
Polymesus-II Screen shot 2011-08-24 at 4.02.08 PM.png GoldResourceIcon.gif 2,138,111 48:26:30
Polymesus-III Screen shot 2011-08-24 at 4.02.15 PM.png GoldResourceIcon.gif 3,071,744 99:59:00
Cybra-I Screen shot 2011-08-24 at 4.02.23 PM.png - -
Cybra-II Screen shot 2011-08-24 at 4.02.36 PM.png GoldResourceIcon.gif 3,184,197 67:04:23
Cybra-III Screen shot 2011-08-24 at 4.02.42 PM.png GoldResourceIcon.gif 4,574,618 138:26:19
Hamdar-I Hamdar I.png - -
Hamdar-II Hamdar II.png GoldResourceIcon.gif 4,346,003 81:58:41
Hamdar-III Hamdar III.png GoldResourceIcon.gif 6,243,742 169:12:10
Chimera Leonis-I Chimera Leonis-I icon.png - -
Chimera Leonis-II Chimera Leonis-II icon.png GoldResourceIcon.gif 15,892,384 156:26:31
Chimera Leonis-III Chimera Leonis-III icon.png GoldResourceIcon.gif 34,831,988 240:12:19
Ultra Nwyfre-I Ultra Nwyfre-I.png - -
Ultra Nwyfre-II Ultra Nwyfre-II.png GoldResourceIcon.gif 131,778,224 429:07:18
Ultra Nwyfre-III Ultra Nwyfre-III.png GoldResourceIcon.gif 261,254,589 867:55:46

Blueprint Information[edit | edit source]

The following table is a list of all Frigates, their blueprint location, and their requirements for initial use. Blueprints from Instances are randomly drawn from Treasure Boxes.

Ship Blueprint Name Source Badge Points Prerequisites to use
Weikes Weikes BP.jpg Start with N/A None
Air Wanderer Air Wanderer BP.gif Instance 1 N/A Research Weikes-I
Valkyrie Valkyrie BP.gif Instance 4 N/A Research Air Wanderer-I
GoGetter GoGetter BP.gif Instance 7 N/A Research Valkyrie-II
Space Hunter Space Hunter BP.gif Instance 10 N/A Research GoGetter-II
Sparrow Sparrow BP.gif Instance 16 N/A Research Space Hunter-II
Devourer Devourer BP.gif Instance 19 N/A Research Sparrow-II
Polymesus Polymesus BP.gif Instance 22 Badge.gif 1,000 Research Devourer-III
Cybra Cybra BP.gif Instance 25 Badge.gif 1,300 Research Polymesus-III
Hamdar Hamdar BP.gif Instance 28 Badge.gif 1,600 Research Cybra-III
Chimera Leonis Chimera Leonis BP.png Sagitarius.S02 N/A Research Shadow Guardian-III
Ultra Nwyfre Ultra Nwyfre.png Champions' Mall N/A (6,598 Championship Points) Research Chimera Leonis-III

Frigates Bonus Stats[edit | edit source]

The following table is a list of the Frigate bonus stats.

Ship Blueprint Name Bonuses
Chimera Leonis-I Chimera Leonis-I icon.png Double Attack (Double Attack Rate: +5%), Critical Strike (Critical Strike Rate: +5%)
Chimera Leonis-II Chimera Leonis-II icon.png Double Attack (Double Attack Rate: +7%), Critical Strike (Critical Strike Rate: +7%)
Chimera Leonis-III Chimera Leonis-III icon.png Double Attack (Double Attack Rate: +10%), Critical Strike (Critical Strike Rate: +10%)
Ultra Nwyfre-I Ultra Nwyfre-I.png Hit Rate +5%, Double Attack Rate +5%, Critical Strike Rate +5%
Ultra Nwyfre-II Ultra Nwyfre-II.png Hit Rate +7%, Double Attack Rate +7%, Critical Strike Rate +7%
Ultra Nwyfre-III Ultra Nwyfre-III.png Hit Rate +10%, Double Attack Rate +10%, Critical Strike Rate +10%
All Frigates Critical Hit Change +1%


Ship Design
HULL DESIGN

Frigates  · Cruisers  · Battleships  · Special Hull  · Flagships  · Humaroid-Flagships  · ALL

ATTACK MODULES

Ballistic Weapons  · Directional Weapons  · Missile Weapons  · Ship-Based Weapons  · Planetary Weapons  · ALL

DEFENSIVE MODULES

Structure Modules  · Shield Modules  · Air Defense Modules

AUXILIARY MODULES

Electronic Modules  · Storage Modules  · Transmission Modules

All items (29)

Community content is available under CC-BY-SA unless otherwise noted.